sensor_id;sensor_type;location;lat;lon;timestamp;P1;durP1;ratioP1;P2;durP2;ratioP2
15096;SDS011;7649;52.084;7.478;2022-12-04T00:01:20;57.57;;;34.33;;
15096;SDS011;7649;52.084;7.478;2022-12-04T00:03:52;56.23;;;33.40;;
15096;SDS011;7649;52.084;7.478;2022-12-04T00:06:21;59.10;;;34.23;;
15096;SDS011;7649;52.084;7.478;2022-12-04T00:08:49;56.27;;;32.53;;
15096;SDS011;7649;52.084;7.478;2022-12-04T00:11:18;54.60;;;32.67;;
15096;SDS011;7649;52.084;7.478;2022-12-04T00:13:47;52.43;;;32.70;;
15096;SDS011;7649;52.084;7.478;2022-12-04T00:16:16;56.63;;;32.97;;
15096;SDS011;7649;52.084;7.478;2022-12-04T00:18:44;54.00;;;32.67;;
15096;SDS011;7649;52.084;7.478;2022-12-04T00:21:15;57.77;;;34.07;;
15096;SDS011;7649;52.084;7.478;2022-12-04T00:23:43;56.60;;;33.20;;
15096;SDS011;7649;52.084;7.478;2022-12-04T00:26:13;52.70;;;33.77;;
15096;SDS011;7649;52.084;7.478;2022-12-04T00:28:42;54.17;;;32.90;;
15096;SDS011;7649;52.084;7.478;2022-12-04T00:31:12;58.97;;;32.60;;
15096;SDS011;7649;52.084;7.478;2022-12-04T00:33:41;53.73;;;33.13;;
15096;SDS011;7649;52.084;7.478;2022-12-04T00:36:10;55.40;;;33.23;;
15096;SDS011;7649;52.084;7.478;2022-12-04T00:38:40;52.77;;;31.70;;
15096;SDS011;7649;52.084;7.478;2022-12-04T00:41:10;54.73;;;33.20;;
15096;SDS011;7649;52.084;7.478;2022-12-04T00:43:39;54.83;;;32.90;;
15096;SDS011;7649;52.084;7.478;2022-12-04T00:46:07;58.13;;;33.73;;
15096;SDS011;7649;52.084;7.478;2022-12-04T00:48:35;54.90;;;33.10;;
15096;SDS011;7649;52.084;7.478;2022-12-04T00:51:04;57.30;;;32.33;;
15096;SDS011;7649;52.084;7.478;2022-12-04T00:53:33;53.93;;;32.37;;
15096;SDS011;7649;52.084;7.478;2022-12-04T00:56:03;52.53;;;31.10;;
15096;SDS011;7649;52.084;7.478;2022-12-04T00:58:32;53.90;;;32.87;;
15096;SDS011;7649;52.084;7.478;2022-12-04T01:01:01;54.60;;;32.70;;
15096;SDS011;7649;52.084;7.478;2022-12-04T01:03:30;49.17;;;31.50;;
15096;SDS011;7649;52.084;7.478;2022-12-04T01:05:59;59.73;;;32.80;;
15096;SDS011;7649;52.084;7.478;2022-12-04T01:08:27;50.77;;;32.17;;
15096;SDS011;7649;52.084;7.478;2022-12-04T01:10:57;51.13;;;31.10;;
15096;SDS011;7649;52.084;7.478;2022-12-04T01:13:27;49.63;;;31.20;;
15096;SDS011;7649;52.084;7.478;2022-12-04T01:15:56;48.67;;;31.13;;
15096;SDS011;7649;52.084;7.478;2022-12-04T01:18:24;54.03;;;31.97;;
15096;SDS011;7649;52.084;7.478;2022-12-04T01:20:52;49.80;;;30.80;;
15096;SDS011;7649;52.084;7.478;2022-12-04T01:23:22;49.97;;;31.47;;
15096;SDS011;7649;52.084;7.478;2022-12-04T01:25:51;52.93;;;31.80;;
15096;SDS011;7649;52.084;7.478;2022-12-04T01:28:19;54.53;;;31.43;;
15096;SDS011;7649;52.084;7.478;2022-12-04T01:30:57;47.93;;;30.93;;
15096;SDS011;7649;52.084;7.478;2022-12-04T01:33:25;52.17;;;31.53;;
15096;SDS011;7649;52.084;7.478;2022-12-04T01:35:54;48.67;;;30.27;;
15096;SDS011;7649;52.084;7.478;2022-12-04T01:38:23;51.17;;;30.77;;
15096;SDS011;7649;52.084;7.478;2022-12-04T01:40:52;50.17;;;30.57;;
15096;SDS011;7649;52.084;7.478;2022-12-04T01:43:20;46.13;;;31.03;;
15096;SDS011;7649;52.084;7.478;2022-12-04T01:45:49;44.17;;;28.73;;
15096;SDS011;7649;52.084;7.478;2022-12-04T01:48:20;44.87;;;28.93;;
15096;SDS011;7649;52.084;7.478;2022-12-04T01:50:51;47.60;;;29.33;;
15096;SDS011;7649;52.084;7.478;2022-12-04T01:53:21;50.57;;;30.17;;
15096;SDS011;7649;52.084;7.478;2022-12-04T01:55:49;44.53;;;27.60;;
15096;SDS011;7649;52.084;7.478;2022-12-04T01:58:18;48.77;;;29.80;;
15096;SDS011;7649;52.084;7.478;2022-12-04T02:00:48;43.97;;;28.13;;
15096;SDS011;7649;52.084;7.478;2022-12-04T02:03:24;49.00;;;29.20;;
15096;SDS011;7649;52.084;7.478;2022-12-04T02:05:53;48.87;;;29.60;;
15096;SDS011;7649;52.084;7.478;2022-12-04T02:08:21;49.77;;;30.33;;
15096;SDS011;7649;52.084;7.478;2022-12-04T02:10:51;50.93;;;29.67;;
15096;SDS011;7649;52.084;7.478;2022-12-04T02:13:23;47.03;;;29.73;;
15096;SDS011;7649;52.084;7.478;2022-12-04T02:15:54;53.17;;;31.90;;
15096;SDS011;7649;52.084;7.478;2022-12-04T02:18:27;50.43;;;29.77;;
15096;SDS011;7649;52.084;7.478;2022-12-04T02:20:57;46.80;;;29.77;;
15096;SDS011;7649;52.084;7.478;2022-12-04T02:23:40;49.83;;;29.47;;
15096;SDS011;7649;52.084;7.478;2022-12-04T02:26:15;46.67;;;30.03;;
15096;SDS011;7649;52.084;7.478;2022-12-04T02:28:48;46.63;;;28.30;;
15096;SDS011;7649;52.084;7.478;2022-12-04T02:31:19;47.60;;;29.73;;
15096;SDS011;7649;52.084;7.478;2022-12-04T02:33:49;44.47;;;28.87;;
15096;SDS011;7649;52.084;7.478;2022-12-04T02:36:20;49.10;;;29.57;;
15096;SDS011;7649;52.084;7.478;2022-12-04T02:38:50;49.10;;;30.07;;
15096;SDS011;7649;52.084;7.478;2022-12-04T02:41:21;46.80;;;30.00;;
15096;SDS011;7649;52.084;7.478;2022-12-04T02:43:52;46.60;;;28.13;;
15096;SDS011;7649;52.084;7.478;2022-12-04T02:46:23;44.33;;;28.23;;
15096;SDS011;7649;52.084;7.478;2022-12-04T02:48:55;45.30;;;29.37;;
15096;SDS011;7649;52.084;7.478;2022-12-04T02:51:25;44.93;;;27.73;;
15096;SDS011;7649;52.084;7.478;2022-12-04T02:53:56;45.67;;;28.50;;
15096;SDS011;7649;52.084;7.478;2022-12-04T02:56:25;45.23;;;27.47;;
15096;SDS011;7649;52.084;7.478;2022-12-04T02:58:57;41.70;;;26.37;;
15096;SDS011;7649;52.084;7.478;2022-12-04T03:01:27;43.43;;;27.93;;
15096;SDS011;7649;52.084;7.478;2022-12-04T03:03:57;43.90;;;26.07;;
15096;SDS011;7649;52.084;7.478;2022-12-04T03:06:26;42.90;;;27.73;;
15096;SDS011;7649;52.084;7.478;2022-12-04T03:08:57;43.90;;;27.97;;
15096;SDS011;7649;52.084;7.478;2022-12-04T03:11:27;44.90;;;28.23;;
15096;SDS011;7649;52.084;7.478;2022-12-04T03:13:59;44.70;;;27.93;;
15096;SDS011;7649;52.084;7.478;2022-12-04T03:16:29;44.77;;;27.33;;
15096;SDS011;7649;52.084;7.478;2022-12-04T03:19:00;42.83;;;27.70;;
15096;SDS011;7649;52.084;7.478;2022-12-04T03:21:30;43.07;;;27.20;;
15096;SDS011;7649;52.084;7.478;2022-12-04T03:24:01;46.53;;;27.93;;
15096;SDS011;7649;52.084;7.478;2022-12-04T03:26:32;48.43;;;27.13;;
15096;SDS011;7649;52.084;7.478;2022-12-04T03:29:05;41.17;;;26.20;;
15096;SDS011;7649;52.084;7.478;2022-12-04T03:31:38;45.17;;;27.83;;
15096;SDS011;7649;52.084;7.478;2022-12-04T03:34:07;48.43;;;28.77;;
15096;SDS011;7649;52.084;7.478;2022-12-04T03:36:38;45.53;;;27.90;;
15096;SDS011;7649;52.084;7.478;2022-12-04T03:39:09;46.77;;;27.83;;
15096;SDS011;7649;52.084;7.478;2022-12-04T03:41:41;48.97;;;28.73;;
15096;SDS011;7649;52.084;7.478;2022-12-04T03:44:18;43.57;;;27.30;;
15096;SDS011;7649;52.084;7.478;2022-12-04T03:46:49;48.40;;;29.73;;
15096;SDS011;7649;52.084;7.478;2022-12-04T03:49:20;46.83;;;28.37;;
15096;SDS011;7649;52.084;7.478;2022-12-04T03:51:51;48.17;;;28.57;;
15096;SDS011;7649;52.084;7.478;2022-12-04T03:54:22;47.93;;;28.43;;
15096;SDS011;7649;52.084;7.478;2022-12-04T03:56:53;48.00;;;28.47;;
15096;SDS011;7649;52.084;7.478;2022-12-04T03:59:25;46.97;;;27.63;;
15096;SDS011;7649;52.084;7.478;2022-12-04T04:01:54;51.60;;;29.27;;
15096;SDS011;7649;52.084;7.478;2022-12-04T04:04:26;44.37;;;28.00;;
15096;SDS011;7649;52.084;7.478;2022-12-04T04:06:56;49.17;;;28.67;;
15096;SDS011;7649;52.084;7.478;2022-12-04T04:09:26;48.80;;;29.40;;
15096;SDS011;7649;52.084;7.478;2022-12-04T04:11:56;49.03;;;29.97;;
15096;SDS011;7649;52.084;7.478;2022-12-04T04:14:29;50.30;;;28.90;;
15096;SDS011;7649;52.084;7.478;2022-12-04T04:17:18;47.70;;;27.60;;
15096;SDS011;7649;52.084;7.478;2022-12-04T04:20:05;49.63;;;28.37;;
15096;SDS011;7649;52.084;7.478;2022-12-04T04:22:51;46.87;;;27.10;;
15096;SDS011;7649;52.084;7.478;2022-12-04T04:25:38;48.27;;;28.87;;
15096;SDS011;7649;52.084;7.478;2022-12-04T04:30:53;50.73;;;28.90;;
15096;SDS011;7649;52.084;7.478;2022-12-04T04:33:23;48.53;;;28.47;;
15096;SDS011;7649;52.084;7.478;2022-12-04T04:35:52;47.80;;;28.50;;
15096;SDS011;7649;52.084;7.478;2022-12-04T04:38:25;49.73;;;29.67;;
15096;SDS011;7649;52.084;7.478;2022-12-04T04:40:56;50.50;;;29.90;;
15096;SDS011;7649;52.084;7.478;2022-12-04T04:43:27;47.93;;;29.10;;
15096;SDS011;7649;52.084;7.478;2022-12-04T04:46:01;47.07;;;28.23;;
15096;SDS011;7649;52.084;7.478;2022-12-04T04:48:32;49.80;;;28.70;;
15096;SDS011;7649;52.084;7.478;2022-12-04T04:51:02;51.30;;;29.47;;
15096;SDS011;7649;52.084;7.478;2022-12-04T04:53:32;51.63;;;30.57;;
15096;SDS011;7649;52.084;7.478;2022-12-04T04:56:03;48.83;;;28.87;;
15096;SDS011;7649;52.084;7.478;2022-12-04T04:58:31;47.73;;;27.90;;
15096;SDS011;7649;52.084;7.478;2022-12-04T05:01:02;51.90;;;28.97;;
15096;SDS011;7649;52.084;7.478;2022-12-04T05:03:30;45.30;;;28.10;;
15096;SDS011;7649;52.084;7.478;2022-12-04T05:05:59;54.80;;;29.43;;
15096;SDS011;7649;52.084;7.478;2022-12-04T05:08:27;48.90;;;27.73;;
15096;SDS011;7649;52.084;7.478;2022-12-04T05:10:55;44.40;;;26.23;;
15096;SDS011;7649;52.084;7.478;2022-12-04T05:13:24;45.07;;;27.13;;
15096;SDS011;7649;52.084;7.478;2022-12-04T05:15:56;50.73;;;27.37;;
15096;SDS011;7649;52.084;7.478;2022-12-04T05:18:26;45.57;;;27.67;;
15096;SDS011;7649;52.084;7.478;2022-12-04T05:20:55;48.43;;;27.53;;
15096;SDS011;7649;52.084;7.478;2022-12-04T05:23:22;43.33;;;26.40;;
15096;SDS011;7649;52.084;7.478;2022-12-04T05:25:57;44.33;;;26.93;;
15096;SDS011;7649;52.084;7.478;2022-12-04T05:28:25;42.70;;;26.27;;
15096;SDS011;7649;52.084;7.478;2022-12-04T05:30:54;44.20;;;26.80;;
15096;SDS011;7649;52.084;7.478;2022-12-04T05:33:22;44.73;;;26.13;;
15096;SDS011;7649;52.084;7.478;2022-12-04T05:35:58;45.63;;;26.43;;
15096;SDS011;7649;52.084;7.478;2022-12-04T05:38:27;46.73;;;26.07;;
15096;SDS011;7649;52.084;7.478;2022-12-04T05:40:56;44.03;;;25.83;;
15096;SDS011;7649;52.084;7.478;2022-12-04T05:43:25;43.20;;;26.07;;
15096;SDS011;7649;52.084;7.478;2022-12-04T05:45:53;46.90;;;24.40;;
15096;SDS011;7649;52.084;7.478;2022-12-04T05:48:21;43.50;;;25.03;;
15096;SDS011;7649;52.084;7.478;2022-12-04T05:50:50;43.23;;;25.00;;
15096;SDS011;7649;52.084;7.478;2022-12-04T05:53:19;38.57;;;23.67;;
15096;SDS011;7649;52.084;7.478;2022-12-04T05:55:52;35.63;;;22.40;;
15096;SDS011;7649;52.084;7.478;2022-12-04T05:58:20;37.20;;;23.90;;
15096;SDS011;7649;52.084;7.478;2022-12-04T06:00:49;40.57;;;24.50;;
15096;SDS011;7649;52.084;7.478;2022-12-04T06:03:17;41.97;;;23.20;;
15096;SDS011;7649;52.084;7.478;2022-12-04T06:05:45;35.87;;;22.33;;
15096;SDS011;7649;52.084;7.478;2022-12-04T06:08:14;36.17;;;21.43;;
15096;SDS011;7649;52.084;7.478;2022-12-04T06:10:45;36.30;;;20.97;;
15096;SDS011;7649;52.084;7.478;2022-12-04T06:13:13;33.53;;;19.47;;
15096;SDS011;7649;52.084;7.478;2022-12-04T06:15:41;32.97;;;19.93;;
15096;SDS011;7649;52.084;7.478;2022-12-04T06:18:09;28.17;;;17.73;;
15096;SDS011;7649;52.084;7.478;2022-12-04T06:20:38;30.03;;;19.07;;
15096;SDS011;7649;52.084;7.478;2022-12-04T06:23:06;29.53;;;17.33;;
15096;SDS011;7649;52.084;7.478;2022-12-04T06:25:34;29.20;;;18.03;;
15096;SDS011;7649;52.084;7.478;2022-12-04T06:28:04;27.67;;;17.57;;
15096;SDS011;7649;52.084;7.478;2022-12-04T06:30:32;27.50;;;17.13;;
15096;SDS011;7649;52.084;7.478;2022-12-04T06:33:01;26.07;;;16.47;;
15096;SDS011;7649;52.084;7.478;2022-12-04T06:35:29;24.07;;;15.77;;
15096;SDS011;7649;52.084;7.478;2022-12-04T06:37:57;27.73;;;16.33;;
15096;SDS011;7649;52.084;7.478;2022-12-04T06:40:25;24.10;;;16.20;;
15096;SDS011;7649;52.084;7.478;2022-12-04T06:42:53;27.77;;;16.63;;
15096;SDS011;7649;52.084;7.478;2022-12-04T06:45:24;25.80;;;15.90;;
15096;SDS011;7649;52.084;7.478;2022-12-04T06:47:52;24.67;;;15.00;;
15096;SDS011;7649;52.084;7.478;2022-12-04T06:50:20;26.40;;;15.07;;
15096;SDS011;7649;52.084;7.478;2022-12-04T06:52:48;27.13;;;15.70;;
15096;SDS011;7649;52.084;7.478;2022-12-04T06:55:17;23.10;;;15.03;;
15096;SDS011;7649;52.084;7.478;2022-12-04T06:57:45;26.57;;;16.00;;
15096;SDS011;7649;52.084;7.478;2022-12-04T07:00:14;22.93;;;14.23;;
15096;SDS011;7649;52.084;7.478;2022-12-04T07:02:43;29.00;;;15.83;;
15096;SDS011;7649;52.084;7.478;2022-12-04T07:05:12;23.80;;;15.13;;
15096;SDS011;7649;52.084;7.478;2022-12-04T07:07:40;24.03;;;15.33;;
15096;SDS011;7649;52.084;7.478;2022-12-04T07:10:09;21.07;;;14.37;;
15096;SDS011;7649;52.084;7.478;2022-12-04T07:12:37;22.47;;;15.27;;
15096;SDS011;7649;52.084;7.478;2022-12-04T07:15:06;23.30;;;14.00;;
15096;SDS011;7649;52.084;7.478;2022-12-04T07:17:34;22.53;;;14.70;;
15096;SDS011;7649;52.084;7.478;2022-12-04T07:20:04;23.13;;;14.50;;
15096;SDS011;7649;52.084;7.478;2022-12-04T07:22:33;22.97;;;14.40;;
15096;SDS011;7649;52.084;7.478;2022-12-04T07:25:01;22.73;;;14.30;;
15096;SDS011;7649;52.084;7.478;2022-12-04T07:27:29;21.13;;;13.23;;
15096;SDS011;7649;52.084;7.478;2022-12-04T07:29:58;25.43;;;14.80;;
15096;SDS011;7649;52.084;7.478;2022-12-04T07:32:26;21.87;;;13.87;;
15096;SDS011;7649;52.084;7.478;2022-12-04T07:34:54;23.23;;;14.53;;
15096;SDS011;7649;52.084;7.478;2022-12-04T07:37:24;23.67;;;14.40;;
15096;SDS011;7649;52.084;7.478;2022-12-04T07:39:52;19.43;;;13.23;;
15096;SDS011;7649;52.084;7.478;2022-12-04T07:42:21;24.13;;;13.30;;
15096;SDS011;7649;52.084;7.478;2022-12-04T07:44:50;23.60;;;13.20;;
15096;SDS011;7649;52.084;7.478;2022-12-04T07:47:18;19.03;;;12.57;;
15096;SDS011;7649;52.084;7.478;2022-12-04T07:49:46;21.77;;;12.73;;
15096;SDS011;7649;52.084;7.478;2022-12-04T07:52:15;20.03;;;13.17;;
15096;SDS011;7649;52.084;7.478;2022-12-04T07:54:44;21.17;;;13.23;;
15096;SDS011;7649;52.084;7.478;2022-12-04T07:57:13;18.47;;;12.97;;
15096;SDS011;7649;52.084;7.478;2022-12-04T07:59:41;20.60;;;13.63;;
15096;SDS011;7649;52.084;7.478;2022-12-04T08:02:10;19.17;;;13.10;;
15096;SDS011;7649;52.084;7.478;2022-12-04T08:04:38;21.13;;;12.63;;
15096;SDS011;7649;52.084;7.478;2022-12-04T08:07:07;18.90;;;12.10;;
15096;SDS011;7649;52.084;7.478;2022-12-04T08:09:35;18.57;;;12.67;;
15096;SDS011;7649;52.084;7.478;2022-12-04T08:12:05;16.93;;;11.67;;
15096;SDS011;7649;52.084;7.478;2022-12-04T08:14:33;21.13;;;12.90;;
15096;SDS011;7649;52.084;7.478;2022-12-04T08:17:02;18.53;;;12.53;;
15096;SDS011;7649;52.084;7.478;2022-12-04T08:19:30;18.30;;;12.70;;
15096;SDS011;7649;52.084;7.478;2022-12-04T08:21:58;19.90;;;12.80;;
15096;SDS011;7649;52.084;7.478;2022-12-04T08:24:27;21.13;;;13.07;;
15096;SDS011;7649;52.084;7.478;2022-12-04T08:26:55;21.23;;;13.77;;
15096;SDS011;7649;52.084;7.478;2022-12-04T08:29:25;18.83;;;12.53;;
15096;SDS011;7649;52.084;7.478;2022-12-04T08:31:53;17.40;;;12.37;;
15096;SDS011;7649;52.084;7.478;2022-12-04T08:34:21;19.63;;;12.60;;
15096;SDS011;7649;52.084;7.478;2022-12-04T08:36:49;19.13;;;12.40;;
15096;SDS011;7649;52.084;7.478;2022-12-04T08:39:18;19.13;;;11.90;;
15096;SDS011;7649;52.084;7.478;2022-12-04T08:41:46;19.40;;;12.47;;
15096;SDS011;7649;52.084;7.478;2022-12-04T08:44:22;17.43;;;11.03;;
15096;SDS011;7649;52.084;7.478;2022-12-04T08:46:52;17.80;;;11.90;;
15096;SDS011;7649;52.084;7.478;2022-12-04T08:49:20;18.43;;;12.00;;
15096;SDS011;7649;52.084;7.478;2022-12-04T08:51:48;18.57;;;12.30;;
15096;SDS011;7649;52.084;7.478;2022-12-04T08:54:16;17.50;;;12.17;;
15096;SDS011;7649;52.084;7.478;2022-12-04T08:56:45;17.57;;;11.80;;
15096;SDS011;7649;52.084;7.478;2022-12-04T08:59:13;15.50;;;11.60;;
15096;SDS011;7649;52.084;7.478;2022-12-04T09:01:41;17.63;;;11.70;;
15096;SDS011;7649;52.084;7.478;2022-12-04T09:04:11;16.00;;;10.67;;
15096;SDS011;7649;52.084;7.478;2022-12-04T09:06:39;16.63;;;11.17;;
15096;SDS011;7649;52.084;7.478;2022-12-04T09:09:08;16.37;;;11.40;;
15096;SDS011;7649;52.084;7.478;2022-12-04T09:11:36;17.33;;;11.80;;
15096;SDS011;7649;52.084;7.478;2022-12-04T09:14:04;19.03;;;12.23;;
15096;SDS011;7649;52.084;7.478;2022-12-04T09:16:33;16.63;;;12.07;;
15096;SDS011;7649;52.084;7.478;2022-12-04T09:19:02;19.57;;;12.90;;
15096;SDS011;7649;52.084;7.478;2022-12-04T09:21:31;16.37;;;12.07;;
15096;SDS011;7649;52.084;7.478;2022-12-04T09:24:00;18.43;;;11.70;;
15096;SDS011;7649;52.084;7.478;2022-12-04T09:26:29;15.53;;;11.43;;
15096;SDS011;7649;52.084;7.478;2022-12-04T09:28:58;16.03;;;11.57;;
15096;SDS011;7649;52.084;7.478;2022-12-04T09:31:26;17.30;;;12.40;;
15096;SDS011;7649;52.084;7.478;2022-12-04T09:33:57;19.13;;;12.67;;
15096;SDS011;7649;52.084;7.478;2022-12-04T09:36:25;17.37;;;11.57;;
15096;SDS011;7649;52.084;7.478;2022-12-04T09:38:55;18.47;;;12.47;;
15096;SDS011;7649;52.084;7.478;2022-12-04T09:41:35;17.10;;;11.57;;
15096;SDS011;7649;52.084;7.478;2022-12-04T09:44:07;17.60;;;12.10;;
15096;SDS011;7649;52.084;7.478;2022-12-04T09:46:39;15.27;;;11.90;;
15096;SDS011;7649;52.084;7.478;2022-12-04T09:49:10;17.37;;;12.13;;
15096;SDS011;7649;52.084;7.478;2022-12-04T09:51:39;17.50;;;12.13;;
15096;SDS011;7649;52.084;7.478;2022-12-04T09:54:11;17.77;;;13.13;;
15096;SDS011;7649;52.084;7.478;2022-12-04T09:56:41;16.87;;;12.20;;
15096;SDS011;7649;52.084;7.478;2022-12-04T09:59:12;18.37;;;13.27;;
15096;SDS011;7649;52.084;7.478;2022-12-04T10:01:42;19.40;;;12.73;;
15096;SDS011;7649;52.084;7.478;2022-12-04T10:04:11;18.63;;;12.67;;
15096;SDS011;7649;52.084;7.478;2022-12-04T10:06:43;17.63;;;13.17;;
15096;SDS011;7649;52.084;7.478;2022-12-04T10:09:15;18.77;;;12.50;;
15096;SDS011;7649;52.084;7.478;2022-12-04T10:11:46;18.00;;;12.50;;
15096;SDS011;7649;52.084;7.478;2022-12-04T10:14:22;19.23;;;12.77;;
15096;SDS011;7649;52.084;7.478;2022-12-04T10:17:09;18.50;;;13.07;;
15096;SDS011;7649;52.084;7.478;2022-12-04T10:19:41;19.00;;;13.27;;
15096;SDS011;7649;52.084;7.478;2022-12-04T10:22:14;18.80;;;13.57;;
15096;SDS011;7649;52.084;7.478;2022-12-04T10:24:47;21.27;;;13.87;;
15096;SDS011;7649;52.084;7.478;2022-12-04T10:27:18;20.23;;;13.97;;
15096;SDS011;7649;52.084;7.478;2022-12-04T10:29:49;20.80;;;14.50;;
15096;SDS011;7649;52.084;7.478;2022-12-04T10:32:20;24.23;;;13.80;;
15096;SDS011;7649;52.084;7.478;2022-12-04T10:34:50;22.80;;;15.00;;
15096;SDS011;7649;52.084;7.478;2022-12-04T10:37:19;19.97;;;14.07;;
15096;SDS011;7649;52.084;7.478;2022-12-04T10:39:52;20.23;;;14.07;;
15096;SDS011;7649;52.084;7.478;2022-12-04T10:42:24;23.57;;;15.33;;
15096;SDS011;7649;52.084;7.478;2022-12-04T10:44:53;23.07;;;15.17;;
15096;SDS011;7649;52.084;7.478;2022-12-04T10:47:22;24.40;;;14.90;;
15096;SDS011;7649;52.084;7.478;2022-12-04T10:49:53;21.43;;;15.23;;
15096;SDS011;7649;52.084;7.478;2022-12-04T10:52:23;25.00;;;16.43;;
15096;SDS011;7649;52.084;7.478;2022-12-04T10:54:54;22.93;;;16.00;;
15096;SDS011;7649;52.084;7.478;2022-12-04T10:57:33;24.97;;;16.60;;
15096;SDS011;7649;52.084;7.478;2022-12-04T11:00:03;26.10;;;17.27;;
15096;SDS011;7649;52.084;7.478;2022-12-04T11:02:32;26.33;;;16.83;;
15096;SDS011;7649;52.084;7.478;2022-12-04T11:05:02;24.80;;;17.30;;
15096;SDS011;7649;52.084;7.478;2022-12-04T11:07:32;26.00;;;17.20;;
15096;SDS011;7649;52.084;7.478;2022-12-04T11:10:04;28.33;;;17.23;;
15096;SDS011;7649;52.084;7.478;2022-12-04T11:12:33;28.67;;;17.57;;
15096;SDS011;7649;52.084;7.478;2022-12-04T11:15:07;28.57;;;17.70;;
15096;SDS011;7649;52.084;7.478;2022-12-04T11:17:39;29.23;;;19.30;;
15096;SDS011;7649;52.084;7.478;2022-12-04T11:20:12;29.90;;;18.27;;
15096;SDS011;7649;52.084;7.478;2022-12-04T11:22:47;26.10;;;18.00;;
15096;SDS011;7649;52.084;7.478;2022-12-04T11:25:18;30.50;;;19.00;;
15096;SDS011;7649;52.084;7.478;2022-12-04T11:27:47;28.30;;;18.50;;
15096;SDS011;7649;52.084;7.478;2022-12-04T11:30:20;28.87;;;19.03;;
15096;SDS011;7649;52.084;7.478;2022-12-04T11:32:48;27.73;;;19.17;;
15096;SDS011;7649;52.084;7.478;2022-12-04T11:35:19;29.70;;;19.47;;
15096;SDS011;7649;52.084;7.478;2022-12-04T11:37:51;30.60;;;19.73;;
15096;SDS011;7649;52.084;7.478;2022-12-04T11:40:22;36.27;;;20.27;;
15096;SDS011;7649;52.084;7.478;2022-12-04T11:43:02;34.60;;;20.03;;
15096;SDS011;7649;52.084;7.478;2022-12-04T11:45:31;32.73;;;20.07;;
15096;SDS011;7649;52.084;7.478;2022-12-04T11:48:01;29.63;;;19.20;;
15096;SDS011;7649;52.084;7.478;2022-12-04T11:50:32;31.70;;;19.70;;
15096;SDS011;7649;52.084;7.478;2022-12-04T11:53:09;33.40;;;20.47;;
15096;SDS011;7649;52.084;7.478;2022-12-04T11:55:42;32.17;;;21.13;;
15096;SDS011;7649;52.084;7.478;2022-12-04T11:58:28;34.30;;;20.17;;
15096;SDS011;7649;52.084;7.478;2022-12-04T12:01:01;30.67;;;20.53;;
15096;SDS011;7649;52.084;7.478;2022-12-04T12:03:36;31.60;;;19.43;;
15096;SDS011;7649;52.084;7.478;2022-12-04T12:06:18;31.30;;;20.10;;
15096;SDS011;7649;52.084;7.478;2022-12-04T12:08:58;32.13;;;20.57;;
15096;SDS011;7649;52.084;7.478;2022-12-04T12:11:30;32.50;;;20.73;;
15096;SDS011;7649;52.084;7.478;2022-12-04T12:14:04;32.80;;;20.20;;
15096;SDS011;7649;52.084;7.478;2022-12-04T12:16:40;30.40;;;18.87;;
15096;SDS011;7649;52.084;7.478;2022-12-04T12:19:28;30.47;;;19.07;;
15096;SDS011;7649;52.084;7.478;2022-12-04T12:21:59;31.60;;;20.57;;
15096;SDS011;7649;52.084;7.478;2022-12-04T12:24:32;29.57;;;20.10;;
15096;SDS011;7649;52.084;7.478;2022-12-04T12:27:13;28.57;;;19.00;;
15096;SDS011;7649;52.084;7.478;2022-12-04T12:29:49;29.40;;;18.57;;
15096;SDS011;7649;52.084;7.478;2022-12-04T12:32:30;33.33;;;19.77;;
15096;SDS011;7649;52.084;7.478;2022-12-04T12:35:04;33.40;;;19.77;;
15096;SDS011;7649;52.084;7.478;2022-12-04T12:37:33;35.90;;;21.00;;
15096;SDS011;7649;52.084;7.478;2022-12-04T12:40:05;32.93;;;20.17;;
15096;SDS011;7649;52.084;7.478;2022-12-04T12:42:39;30.97;;;19.57;;
15096;SDS011;7649;52.084;7.478;2022-12-04T12:45:15;30.47;;;19.93;;
15096;SDS011;7649;52.084;7.478;2022-12-04T12:47:46;31.77;;;18.77;;
15096;SDS011;7649;52.084;7.478;2022-12-04T12:50:17;29.67;;;19.37;;
15096;SDS011;7649;52.084;7.478;2022-12-04T12:52:49;29.80;;;18.87;;
15096;SDS011;7649;52.084;7.478;2022-12-04T12:55:23;28.70;;;19.10;;
15096;SDS011;7649;52.084;7.478;2022-12-04T12:57:57;28.77;;;19.27;;
15096;SDS011;7649;52.084;7.478;2022-12-04T13:00:27;30.43;;;18.27;;
15096;SDS011;7649;52.084;7.478;2022-12-04T13:02:59;29.90;;;19.50;;
15096;SDS011;7649;52.084;7.478;2022-12-04T13:05:29;30.23;;;19.60;;
15096;SDS011;7649;52.084;7.478;2022-12-04T13:08:00;28.87;;;18.93;;
15096;SDS011;7649;52.084;7.478;2022-12-04T13:10:32;30.67;;;21.00;;
15096;SDS011;7649;52.084;7.478;2022-12-04T13:13:04;31.87;;;20.90;;
15096;SDS011;7649;52.084;7.478;2022-12-04T13:15:38;34.53;;;21.67;;
15096;SDS011;7649;52.084;7.478;2022-12-04T13:18:07;33.17;;;21.27;;
15096;SDS011;7649;52.084;7.478;2022-12-04T13:20:38;33.47;;;21.03;;
15096;SDS011;7649;52.084;7.478;2022-12-04T13:23:12;29.50;;;19.93;;
15096;SDS011;7649;52.084;7.478;2022-12-04T13:25:45;32.27;;;21.20;;
15096;SDS011;7649;52.084;7.478;2022-12-04T13:28:19;35.17;;;20.93;;
15096;SDS011;7649;52.084;7.478;2022-12-04T13:30:56;30.97;;;20.53;;
15096;SDS011;7649;52.084;7.478;2022-12-04T13:36:29;33.20;;;21.73;;
15096;SDS011;7649;52.084;7.478;2022-12-04T13:39:10;32.97;;;20.13;;
15096;SDS011;7649;52.084;7.478;2022-12-04T13:41:54;32.23;;;21.37;;
15096;SDS011;7649;52.084;7.478;2022-12-04T13:44:25;38.10;;;22.30;;
15096;SDS011;7649;52.084;7.478;2022-12-04T13:46:56;37.20;;;22.73;;
15096;SDS011;7649;52.084;7.478;2022-12-04T13:49:26;39.07;;;23.53;;
15096;SDS011;7649;52.084;7.478;2022-12-04T13:51:55;40.60;;;24.63;;
15096;SDS011;7649;52.084;7.478;2022-12-04T13:54:30;39.10;;;23.10;;
15096;SDS011;7649;52.084;7.478;2022-12-04T13:57:13;44.87;;;26.03;;
15096;SDS011;7649;52.084;7.478;2022-12-04T13:59:45;43.27;;;24.80;;
15096;SDS011;7649;52.084;7.478;2022-12-04T14:02:21;46.53;;;25.10;;
15096;SDS011;7649;52.084;7.478;2022-12-04T14:04:51;41.73;;;24.20;;
15096;SDS011;7649;52.084;7.478;2022-12-04T14:07:23;39.50;;;24.60;;
15096;SDS011;7649;52.084;7.478;2022-12-04T14:09:52;39.47;;;24.40;;
15096;SDS011;7649;52.084;7.478;2022-12-04T14:12:23;38.77;;;23.50;;
15096;SDS011;7649;52.084;7.478;2022-12-04T14:14:55;40.20;;;25.00;;
15096;SDS011;7649;52.084;7.478;2022-12-04T14:17:26;39.20;;;24.10;;
15096;SDS011;7649;52.084;7.478;2022-12-04T14:19:58;37.37;;;23.07;;
15096;SDS011;7649;52.084;7.478;2022-12-04T14:22:40;40.67;;;23.83;;
15096;SDS011;7649;52.084;7.478;2022-12-04T14:25:23;39.67;;;24.60;;
15096;SDS011;7649;52.084;7.478;2022-12-04T14:27:52;38.97;;;24.03;;
15096;SDS011;7649;52.084;7.478;2022-12-04T14:30:23;39.87;;;24.63;;
15096;SDS011;7649;52.084;7.478;2022-12-04T14:32:53;40.63;;;24.43;;
15096;SDS011;7649;52.084;7.478;2022-12-04T14:35:23;44.07;;;25.43;;
15096;SDS011;7649;52.084;7.478;2022-12-04T14:37:54;39.50;;;23.80;;
15096;SDS011;7649;52.084;7.478;2022-12-04T14:40:24;37.57;;;24.20;;
15096;SDS011;7649;52.084;7.478;2022-12-04T14:42:53;38.30;;;24.43;;
15096;SDS011;7649;52.084;7.478;2022-12-04T14:45:28;43.23;;;25.00;;
15096;SDS011;7649;52.084;7.478;2022-12-04T14:48:09;41.93;;;25.70;;
15096;SDS011;7649;52.084;7.478;2022-12-04T14:50:44;40.13;;;25.50;;
15096;SDS011;7649;52.084;7.478;2022-12-04T14:53:17;42.20;;;25.97;;
15096;SDS011;7649;52.084;7.478;2022-12-04T14:55:50;42.73;;;26.10;;
15096;SDS011;7649;52.084;7.478;2022-12-04T14:58:19;41.90;;;25.60;;
15096;SDS011;7649;52.084;7.478;2022-12-04T15:01:01;46.87;;;27.30;;